sensor_id;sensor_type;location;lat;lon;timestamp;P1;durP1;ratioP1;P2;durP2;ratioP2
38779;SDS011;29273;49.962;9.768;2023-01-26T00:01:25;8.82;;;5.93;;
38779;SDS011;29273;49.962;9.768;2023-01-26T00:03:55;8.02;;;6.03;;
38779;SDS011;29273;49.962;9.768;2023-01-26T00:06:21;9.70;;;6.43;;
38779;SDS011;29273;49.962;9.768;2023-01-26T00:08:48;8.98;;;6.13;;
38779;SDS011;29273;49.962;9.768;2023-01-26T00:11:17;8.75;;;6.07;;
38779;SDS011;29273;49.962;9.768;2023-01-26T00:13:44;8.95;;;6.13;;
38779;SDS011;29273;49.962;9.768;2023-01-26T00:16:11;8.32;;;5.95;;
38779;SDS011;29273;49.962;9.768;2023-01-26T00:18:39;11.18;;;7.20;;
38779;SDS011;29273;49.962;9.768;2023-01-26T00:21:06;9.10;;;6.10;;
38779;SDS011;29273;49.962;9.768;2023-01-26T00:23:33;9.20;;;6.07;;
38779;SDS011;29273;49.962;9.768;2023-01-26T00:25:59;10.70;;;6.57;;
38779;SDS011;29273;49.962;9.768;2023-01-26T00:28:26;9.48;;;6.22;;
38779;SDS011;29273;49.962;9.768;2023-01-26T00:30:53;8.57;;;6.07;;
38779;SDS011;29273;49.962;9.768;2023-01-26T00:33:25;8.07;;;6.00;;
38779;SDS011;29273;49.962;9.768;2023-01-26T00:35:54;9.27;;;6.43;;
38779;SDS011;29273;49.962;9.768;2023-01-26T00:38:21;9.35;;;5.78;;
38779;SDS011;29273;49.962;9.768;2023-01-26T00:40:46;8.77;;;6.00;;
38779;SDS011;29273;49.962;9.768;2023-01-26T00:43:12;8.98;;;5.85;;
38779;SDS011;29273;49.962;9.768;2023-01-26T00:45:38;8.07;;;5.53;;
38779;SDS011;29273;49.962;9.768;2023-01-26T00:48:04;9.57;;;6.00;;
38779;SDS011;29273;49.962;9.768;2023-01-26T00:50:30;8.98;;;6.05;;
38779;SDS011;29273;49.962;9.768;2023-01-26T00:52:55;7.38;;;5.30;;
38779;SDS011;29273;49.962;9.768;2023-01-26T00:55:22;9.18;;;5.88;;
38779;SDS011;29273;49.962;9.768;2023-01-26T00:57:48;9.63;;;5.97;;
38779;SDS011;29273;49.962;9.768;2023-01-26T01:00:15;8.13;;;5.75;;
38779;SDS011;29273;49.962;9.768;2023-01-26T01:02:43;9.25;;;6.15;;
38779;SDS011;29273;49.962;9.768;2023-01-26T01:05:09;9.40;;;6.20;;
38779;SDS011;29273;49.962;9.768;2023-01-26T01:07:35;7.63;;;5.53;;
38779;SDS011;29273;49.962;9.768;2023-01-26T01:10:00;7.93;;;5.65;;
38779;SDS011;29273;49.962;9.768;2023-01-26T01:12:26;8.13;;;5.65;;
38779;SDS011;29273;49.962;9.768;2023-01-26T01:14:53;8.13;;;5.65;;
38779;SDS011;29273;49.962;9.768;2023-01-26T01:17:18;7.28;;;5.45;;
38779;SDS011;29273;49.962;9.768;2023-01-26T01:19:44;7.82;;;5.63;;
38779;SDS011;29273;49.962;9.768;2023-01-26T01:22:11;8.25;;;5.57;;
38779;SDS011;29273;49.962;9.768;2023-01-26T01:24:36;10.13;;;5.95;;
38779;SDS011;29273;49.962;9.768;2023-01-26T01:27:02;8.73;;;6.18;;
38779;SDS011;29273;49.962;9.768;2023-01-26T01:29:28;9.18;;;6.03;;
38779;SDS011;29273;49.962;9.768;2023-01-26T01:31:53;9.18;;;5.97;;
38779;SDS011;29273;49.962;9.768;2023-01-26T01:34:19;9.02;;;6.10;;
38779;SDS011;29273;49.962;9.768;2023-01-26T01:36:44;8.70;;;5.57;;
38779;SDS011;29273;49.962;9.768;2023-01-26T01:39:10;9.32;;;6.22;;
38779;SDS011;29273;49.962;9.768;2023-01-26T01:41:35;7.93;;;5.78;;
38779;SDS011;29273;49.962;9.768;2023-01-26T01:47:03;9.38;;;5.97;;
38779;SDS011;29273;49.962;9.768;2023-01-26T01:52:13;8.40;;;5.95;;
38779;SDS011;29273;49.962;9.768;2023-01-26T01:54:46;8.85;;;6.15;;
38779;SDS011;29273;49.962;9.768;2023-01-26T01:57:21;8.60;;;5.85;;
38779;SDS011;29273;49.962;9.768;2023-01-26T01:59:55;8.88;;;5.93;;
38779;SDS011;29273;49.962;9.768;2023-01-26T02:02:26;8.13;;;5.53;;
38779;SDS011;29273;49.962;9.768;2023-01-26T02:04:52;8.48;;;5.90;;
38779;SDS011;29273;49.962;9.768;2023-01-26T02:07:27;8.63;;;5.78;;
38779;SDS011;29273;49.962;9.768;2023-01-26T02:09:55;8.10;;;5.65;;
38779;SDS011;29273;49.962;9.768;2023-01-26T02:12:41;7.97;;;5.55;;
38779;SDS011;29273;49.962;9.768;2023-01-26T02:15:06;8.50;;;5.90;;
38779;SDS011;29273;49.962;9.768;2023-01-26T02:17:32;9.05;;;6.07;;
38779;SDS011;29273;49.962;9.768;2023-01-26T02:25:06;8.90;;;5.43;;
38779;SDS011;29273;49.962;9.768;2023-01-26T02:27:43;8.80;;;5.30;;
38779;SDS011;29273;49.962;9.768;2023-01-26T02:30:09;8.60;;;5.65;;
38779;SDS011;29273;49.962;9.768;2023-01-26T02:32:37;8.40;;;5.75;;
38779;SDS011;29273;49.962;9.768;2023-01-26T02:35:02;9.27;;;6.03;;
38779;SDS011;29273;49.962;9.768;2023-01-26T02:37:28;10.32;;;6.65;;
38779;SDS011;29273;49.962;9.768;2023-01-26T02:42:41;7.97;;;5.55;;
38779;SDS011;29273;49.962;9.768;2023-01-26T02:45:09;10.60;;;6.68;;
38779;SDS011;29273;49.962;9.768;2023-01-26T02:47:39;8.63;;;6.13;;
38779;SDS011;29273;49.962;9.768;2023-01-26T02:50:08;10.32;;;6.25;;
38779;SDS011;29273;49.962;9.768;2023-01-26T02:52:35;7.93;;;5.57;;
38779;SDS011;29273;49.962;9.768;2023-01-26T02:55:21;8.75;;;6.03;;
38779;SDS011;29273;49.962;9.768;2023-01-26T02:57:47;10.05;;;6.30;;
38779;SDS011;29273;49.962;9.768;2023-01-26T03:00:17;9.35;;;6.43;;
38779;SDS011;29273;49.962;9.768;2023-01-26T03:02:46;9.82;;;6.53;;
38779;SDS011;29273;49.962;9.768;2023-01-26T03:05:15;10.23;;;6.10;;
38779;SDS011;29273;49.962;9.768;2023-01-26T03:07:41;10.75;;;6.82;;
38779;SDS011;29273;49.962;9.768;2023-01-26T03:10:07;12.25;;;7.35;;
38779;SDS011;29273;49.962;9.768;2023-01-26T03:12:33;10.32;;;6.68;;
38779;SDS011;29273;49.962;9.768;2023-01-26T03:14:58;11.10;;;7.22;;
38779;SDS011;29273;49.962;9.768;2023-01-26T03:17:42;11.70;;;7.45;;
38779;SDS011;29273;49.962;9.768;2023-01-26T03:20:08;11.18;;;7.40;;
38779;SDS011;29273;49.962;9.768;2023-01-26T03:22:53;10.02;;;6.38;;
38779;SDS011;29273;49.962;9.768;2023-01-26T03:25:38;10.82;;;6.72;;
38779;SDS011;29273;49.962;9.768;2023-01-26T03:28:23;9.55;;;6.70;;
38779;SDS011;29273;49.962;9.768;2023-01-26T03:30:51;10.40;;;6.53;;
38779;SDS011;29273;49.962;9.768;2023-01-26T03:33:19;10.93;;;6.78;;
38779;SDS011;29273;49.962;9.768;2023-01-26T03:35:45;9.82;;;6.30;;
38779;SDS011;29273;49.962;9.768;2023-01-26T03:38:11;10.07;;;6.38;;
38779;SDS011;29273;49.962;9.768;2023-01-26T03:40:43;8.77;;;5.93;;
38779;SDS011;29273;49.962;9.768;2023-01-26T03:43:28;9.55;;;5.95;;
38779;SDS011;29273;49.962;9.768;2023-01-26T03:46:13;8.60;;;5.82;;
38779;SDS011;29273;49.962;9.768;2023-01-26T03:48:57;8.50;;;5.70;;
38779;SDS011;29273;49.962;9.768;2023-01-26T03:51:41;8.18;;;5.20;;
38779;SDS011;29273;49.962;9.768;2023-01-26T03:54:26;7.65;;;4.72;;
38779;SDS011;29273;49.962;9.768;2023-01-26T03:57:10;9.50;;;5.78;;
38779;SDS011;29273;49.962;9.768;2023-01-26T03:59:36;8.05;;;4.95;;
38779;SDS011;29273;49.962;9.768;2023-01-26T04:02:11;7.70;;;5.18;;
38779;SDS011;29273;49.962;9.768;2023-01-26T04:04:56;8.73;;;5.75;;
38779;SDS011;29273;49.962;9.768;2023-01-26T04:07:44;6.95;;;4.70;;
38779;SDS011;29273;49.962;9.768;2023-01-26T04:10:29;6.80;;;4.65;;
38779;SDS011;29273;49.962;9.768;2023-01-26T04:12:54;7.43;;;4.75;;
38779;SDS011;29273;49.962;9.768;2023-01-26T04:15:46;6.40;;;4.65;;
38779;SDS011;29273;49.962;9.768;2023-01-26T04:18:30;6.88;;;4.68;;
38779;SDS011;29273;49.962;9.768;2023-01-26T04:21:14;8.38;;;4.65;;
38779;SDS011;29273;49.962;9.768;2023-01-26T04:24:03;6.53;;;4.20;;
38779;SDS011;29273;49.962;9.768;2023-01-26T04:26:34;6.40;;;4.13;;
38779;SDS011;29273;49.962;9.768;2023-01-26T04:29:04;6.03;;;3.75;;
38779;SDS011;29273;49.962;9.768;2023-01-26T04:31:31;7.13;;;4.60;;
38779;SDS011;29273;49.962;9.768;2023-01-26T04:34:00;7.40;;;4.25;;
38779;SDS011;29273;49.962;9.768;2023-01-26T04:36:27;6.53;;;4.22;;
38779;SDS011;29273;49.962;9.768;2023-01-26T04:38:53;6.97;;;4.63;;
38779;SDS011;29273;49.962;9.768;2023-01-26T04:41:20;6.38;;;4.07;;
38779;SDS011;29273;49.962;9.768;2023-01-26T04:43:52;5.25;;;3.58;;
38779;SDS011;29273;49.962;9.768;2023-01-26T04:46:18;5.47;;;3.67;;
38779;SDS011;29273;49.962;9.768;2023-01-26T04:48:43;4.70;;;3.28;;
38779;SDS011;29273;49.962;9.768;2023-01-26T04:51:13;5.50;;;3.60;;
38779;SDS011;29273;49.962;9.768;2023-01-26T04:53:40;5.07;;;3.30;;
38779;SDS011;29273;49.962;9.768;2023-01-26T04:56:06;4.95;;;3.25;;
38779;SDS011;29273;49.962;9.768;2023-01-26T04:58:34;4.32;;;3.25;;
38779;SDS011;29273;49.962;9.768;2023-01-26T05:01:00;4.30;;;3.03;;
38779;SDS011;29273;49.962;9.768;2023-01-26T05:03:25;4.93;;;3.40;;
38779;SDS011;29273;49.962;9.768;2023-01-26T05:05:52;4.15;;;3.00;;
38779;SDS011;29273;49.962;9.768;2023-01-26T05:08:22;4.47;;;3.05;;
38779;SDS011;29273;49.962;9.768;2023-01-26T05:10:48;3.90;;;2.45;;
38779;SDS011;29273;49.962;9.768;2023-01-26T05:13:18;3.75;;;2.78;;
38779;SDS011;29273;49.962;9.768;2023-01-26T05:16:12;5.10;;;3.17;;
38779;SDS011;29273;49.962;9.768;2023-01-26T05:18:58;4.25;;;3.15;;
38779;SDS011;29273;49.962;9.768;2023-01-26T05:21:53;3.42;;;2.70;;
38779;SDS011;29273;49.962;9.768;2023-01-26T05:24:18;3.67;;;2.58;;
38779;SDS011;29273;49.962;9.768;2023-01-26T05:26:59;4.45;;;3.10;;
38779;SDS011;29273;49.962;9.768;2023-01-26T05:29:47;4.15;;;2.72;;
38779;SDS011;29273;49.962;9.768;2023-01-26T05:32:17;3.85;;;2.72;;
38779;SDS011;29273;49.962;9.768;2023-01-26T05:34:43;3.63;;;2.58;;
38779;SDS011;29273;49.962;9.768;2023-01-26T05:37:09;3.40;;;2.63;;
38779;SDS011;29273;49.962;9.768;2023-01-26T05:39:37;4.45;;;2.80;;
38779;SDS011;29273;49.962;9.768;2023-01-26T05:42:05;3.53;;;2.67;;
38779;SDS011;29273;49.962;9.768;2023-01-26T05:45:08;3.50;;;2.55;;
38779;SDS011;29273;49.962;9.768;2023-01-26T05:47:37;3.58;;;2.60;;
38779;SDS011;29273;49.962;9.768;2023-01-26T05:50:03;4.15;;;3.05;;
38779;SDS011;29273;49.962;9.768;2023-01-26T05:52:30;3.90;;;2.70;;
38779;SDS011;29273;49.962;9.768;2023-01-26T05:54:57;2.50;;;2.15;;
38779;SDS011;29273;49.962;9.768;2023-01-26T05:57:23;3.75;;;2.65;;
38779;SDS011;29273;49.962;9.768;2023-01-26T05:59:56;3.63;;;2.50;;
38779;SDS011;29273;49.962;9.768;2023-01-26T06:02:22;3.55;;;2.67;;
38779;SDS011;29273;49.962;9.768;2023-01-26T06:04:48;3.17;;;2.45;;
38779;SDS011;29273;49.962;9.768;2023-01-26T06:07:14;3.13;;;2.50;;
38779;SDS011;29273;49.962;9.768;2023-01-26T06:09:45;3.75;;;2.60;;
38779;SDS011;29273;49.962;9.768;2023-01-26T06:12:20;4.03;;;2.58;;
38779;SDS011;29273;49.962;9.768;2023-01-26T06:14:58;4.32;;;3.03;;
38779;SDS011;29273;49.962;9.768;2023-01-26T06:17:35;3.25;;;2.20;;
38779;SDS011;29273;49.962;9.768;2023-01-26T06:20:04;4.50;;;2.67;;
38779;SDS011;29273;49.962;9.768;2023-01-26T06:22:31;3.33;;;2.63;;
38779;SDS011;29273;49.962;9.768;2023-01-26T06:24:57;4.82;;;2.63;;
38779;SDS011;29273;49.962;9.768;2023-01-26T06:27:23;4.13;;;2.90;;
38779;SDS011;29273;49.962;9.768;2023-01-26T06:29:50;3.72;;;2.83;;
38779;SDS011;29273;49.962;9.768;2023-01-26T06:32:15;3.88;;;2.90;;
38779;SDS011;29273;49.962;9.768;2023-01-26T06:34:43;3.83;;;2.65;;
38779;SDS011;29273;49.962;9.768;2023-01-26T06:37:08;4.05;;;2.90;;
38779;SDS011;29273;49.962;9.768;2023-01-26T06:39:37;3.25;;;2.72;;
38779;SDS011;29273;49.962;9.768;2023-01-26T06:42:02;3.33;;;2.60;;
38779;SDS011;29273;49.962;9.768;2023-01-26T06:44:28;3.53;;;2.50;;
38779;SDS011;29273;49.962;9.768;2023-01-26T06:46:54;3.17;;;2.47;;
38779;SDS011;29273;49.962;9.768;2023-01-26T06:49:19;3.90;;;2.65;;
38779;SDS011;29273;49.962;9.768;2023-01-26T06:54:42;2.63;;;1.98;;
38779;SDS011;29273;49.962;9.768;2023-01-26T06:57:20;4.03;;;2.70;;
38779;SDS011;29273;49.962;9.768;2023-01-26T07:00:02;3.90;;;2.53;;
38779;SDS011;29273;49.962;9.768;2023-01-26T07:02:57;4.25;;;2.70;;
38779;SDS011;29273;49.962;9.768;2023-01-26T07:05:22;3.95;;;2.90;;
38779;SDS011;29273;49.962;9.768;2023-01-26T07:07:48;3.17;;;2.60;;
38779;SDS011;29273;49.962;9.768;2023-01-26T07:10:13;3.22;;;2.40;;
38779;SDS011;29273;49.962;9.768;2023-01-26T07:12:43;3.58;;;2.47;;
38779;SDS011;29273;49.962;9.768;2023-01-26T07:15:10;2.72;;;2.30;;
38779;SDS011;29273;49.962;9.768;2023-01-26T07:17:37;3.38;;;2.50;;
38779;SDS011;29273;49.962;9.768;2023-01-26T07:20:03;2.83;;;2.22;;
38779;SDS011;29273;49.962;9.768;2023-01-26T07:22:29;2.78;;;1.90;;
38779;SDS011;29273;49.962;9.768;2023-01-26T07:24:54;2.28;;;1.73;;
38779;SDS011;29273;49.962;9.768;2023-01-26T07:27:20;1.90;;;1.65;;
38779;SDS011;29273;49.962;9.768;2023-01-26T07:29:45;2.70;;;2.10;;
38779;SDS011;29273;49.962;9.768;2023-01-26T07:32:11;2.13;;;1.80;;
38779;SDS011;29273;49.962;9.768;2023-01-26T07:34:36;2.15;;;1.88;;
38779;SDS011;29273;49.962;9.768;2023-01-26T07:37:02;1.65;;;1.55;;
38779;SDS011;29273;49.962;9.768;2023-01-26T07:39:29;2.63;;;1.90;;
38779;SDS011;29273;49.962;9.768;2023-01-26T07:41:55;2.20;;;1.88;;
38779;SDS011;29273;49.962;9.768;2023-01-26T07:44:34;1.60;;;1.48;;
38779;SDS011;29273;49.962;9.768;2023-01-26T07:46:59;2.03;;;1.75;;
38779;SDS011;29273;49.962;9.768;2023-01-26T07:49:25;2.50;;;2.00;;
38779;SDS011;29273;49.962;9.768;2023-01-26T07:51:50;2.65;;;1.77;;
38779;SDS011;29273;49.962;9.768;2023-01-26T07:54:17;2.17;;;1.73;;
38779;SDS011;29273;49.962;9.768;2023-01-26T07:56:42;2.70;;;1.83;;
38779;SDS011;29273;49.962;9.768;2023-01-26T07:59:09;2.33;;;2.00;;
38779;SDS011;29273;49.962;9.768;2023-01-26T08:01:35;2.38;;;1.85;;
38779;SDS011;29273;49.962;9.768;2023-01-26T08:04:01;1.98;;;1.70;;
38779;SDS011;29273;49.962;9.768;2023-01-26T08:06:26;1.80;;;1.48;;
38779;SDS011;29273;49.962;9.768;2023-01-26T08:08:52;2.10;;;1.50;;
38779;SDS011;29273;49.962;9.768;2023-01-26T08:11:20;2.33;;;1.70;;
38779;SDS011;29273;49.962;9.768;2023-01-26T08:13:48;1.67;;;1.58;;
38779;SDS011;29273;49.962;9.768;2023-01-26T08:16:13;2.28;;;1.77;;
38779;SDS011;29273;49.962;9.768;2023-01-26T08:18:43;1.67;;;1.50;;
38779;SDS011;29273;49.962;9.768;2023-01-26T08:21:10;1.45;;;1.35;;
38779;SDS011;29273;49.962;9.768;2023-01-26T08:23:36;2.13;;;1.60;;
38779;SDS011;29273;49.962;9.768;2023-01-26T08:26:02;2.08;;;1.70;;
38779;SDS011;29273;49.962;9.768;2023-01-26T08:28:32;1.58;;;1.48;;
38779;SDS011;29273;49.962;9.768;2023-01-26T08:31:05;2.03;;;1.58;;
38779;SDS011;29273;49.962;9.768;2023-01-26T08:33:35;2.25;;;1.77;;
38779;SDS011;29273;49.962;9.768;2023-01-26T08:36:06;2.00;;;1.67;;
38779;SDS011;29273;49.962;9.768;2023-01-26T08:38:34;1.67;;;1.50;;
38779;SDS011;29273;49.962;9.768;2023-01-26T08:41:00;2.08;;;1.70;;
38779;SDS011;29273;49.962;9.768;2023-01-26T08:43:27;2.05;;;1.65;;
38779;SDS011;29273;49.962;9.768;2023-01-26T08:45:52;1.85;;;1.70;;
38779;SDS011;29273;49.962;9.768;2023-01-26T08:48:18;2.15;;;1.60;;
38779;SDS011;29273;49.962;9.768;2023-01-26T08:50:44;1.88;;;1.50;;
38779;SDS011;29273;49.962;9.768;2023-01-26T08:53:10;1.55;;;1.45;;
38779;SDS011;29273;49.962;9.768;2023-01-26T08:55:35;2.22;;;1.80;;
38779;SDS011;29273;49.962;9.768;2023-01-26T08:58:01;2.38;;;1.90;;
38779;SDS011;29273;49.962;9.768;2023-01-26T09:00:27;2.42;;;1.80;;
38779;SDS011;29273;49.962;9.768;2023-01-26T09:02:58;2.05;;;1.50;;
38779;SDS011;29273;49.962;9.768;2023-01-26T09:05:25;1.80;;;1.55;;
38779;SDS011;29273;49.962;9.768;2023-01-26T09:07:50;1.70;;;1.60;;
38779;SDS011;29273;49.962;9.768;2023-01-26T09:10:16;2.17;;;1.73;;
38779;SDS011;29273;49.962;9.768;2023-01-26T09:12:41;1.70;;;1.60;;
38779;SDS011;29273;49.962;9.768;2023-01-26T09:15:07;2.83;;;1.90;;
38779;SDS011;29273;49.962;9.768;2023-01-26T09:17:33;1.95;;;1.77;;
38779;SDS011;29273;49.962;9.768;2023-01-26T09:19:59;2.20;;;1.92;;
38779;SDS011;29273;49.962;9.768;2023-01-26T09:22:24;2.08;;;1.67;;
38779;SDS011;29273;49.962;9.768;2023-01-26T09:24:50;2.72;;;2.10;;
38779;SDS011;29273;49.962;9.768;2023-01-26T09:27:15;2.03;;;1.70;;
38779;SDS011;29273;49.962;9.768;2023-01-26T09:29:41;2.15;;;1.85;;
38779;SDS011;29273;49.962;9.768;2023-01-26T09:32:06;2.08;;;1.85;;
38779;SDS011;29273;49.962;9.768;2023-01-26T09:34:32;2.10;;;1.70;;
38779;SDS011;29273;49.962;9.768;2023-01-26T09:36:57;2.90;;;2.10;;
38779;SDS011;29273;49.962;9.768;2023-01-26T09:39:22;2.03;;;1.80;;
38779;SDS011;29273;49.962;9.768;2023-01-26T09:44:23;2.60;;;1.70;;
38779;SDS011;29273;49.962;9.768;2023-01-26T09:49:47;1.60;;;1.50;;
38779;SDS011;29273;49.962;9.768;2023-01-26T09:55:26;2.00;;;1.65;;
38779;SDS011;29273;49.962;9.768;2023-01-26T09:58:02;2.47;;;1.90;;
38779;SDS011;29273;49.962;9.768;2023-01-26T10:00:31;1.83;;;1.65;;
38779;SDS011;29273;49.962;9.768;2023-01-26T10:05:51;2.55;;;2.00;;
38779;SDS011;29273;49.962;9.768;2023-01-26T10:08:50;2.50;;;2.10;;
38779;SDS011;29273;49.962;9.768;2023-01-26T10:11:37;2.40;;;2.20;;
38779;SDS011;29273;49.962;9.768;2023-01-26T10:16:34;3.22;;;2.10;;
38779;SDS011;29273;49.962;9.768;2023-01-26T10:19:01;2.92;;;2.20;;
38779;SDS011;29273;49.962;9.768;2023-01-26T10:21:37;2.85;;;2.42;;
38779;SDS011;29273;49.962;9.768;2023-01-26T10:24:08;2.60;;;2.22;;
38779;SDS011;29273;49.962;9.768;2023-01-26T10:26:36;3.13;;;2.50;;
38779;SDS011;29273;49.962;9.768;2023-01-26T10:29:02;3.13;;;2.30;;
38779;SDS011;29273;49.962;9.768;2023-01-26T10:31:29;2.78;;;2.22;;
38779;SDS011;29273;49.962;9.768;2023-01-26T10:33:57;3.45;;;2.20;;
38779;SDS011;29273;49.962;9.768;2023-01-26T10:36:23;2.72;;;2.28;;
38779;SDS011;29273;49.962;9.768;2023-01-26T10:38:50;2.75;;;1.98;;
38779;SDS011;29273;49.962;9.768;2023-01-26T10:41:23;2.70;;;2.08;;
38779;SDS011;29273;49.962;9.768;2023-01-26T10:48:55;2.83;;;2.25;;
38779;SDS011;29273;49.962;9.768;2023-01-26T10:51:30;2.30;;;1.83;;
38779;SDS011;29273;49.962;9.768;2023-01-26T10:56:50;2.90;;;2.40;;
38779;SDS011;29273;49.962;9.768;2023-01-26T10:59:21;3.15;;;2.30;;
38779;SDS011;29273;49.962;9.768;2023-01-26T11:01:52;2.30;;;2.03;;
38779;SDS011;29273;49.962;9.768;2023-01-26T11:04:20;2.38;;;1.85;;
38779;SDS011;29273;49.962;9.768;2023-01-26T11:06:46;2.47;;;2.13;;
38779;SDS011;29273;49.962;9.768;2023-01-26T11:09:19;3.05;;;2.22;;
38779;SDS011;29273;49.962;9.768;2023-01-26T11:11:59;2.30;;;2.10;;
38779;SDS011;29273;49.962;9.768;2023-01-26T11:14:27;3.25;;;2.30;;
38779;SDS011;29273;49.962;9.768;2023-01-26T11:19:51;2.78;;;2.08;;
38779;SDS011;29273;49.962;9.768;2023-01-26T11:22:28;2.78;;;2.30;;
38779;SDS011;29273;49.962;9.768;2023-01-26T11:25:16;2.90;;;2.30;;
38779;SDS011;29273;49.962;9.768;2023-01-26T11:34:15;2.40;;;2.20;;
38779;SDS011;29273;49.962;9.768;2023-01-26T11:39:43;2.53;;;2.15;;
38779;SDS011;29273;49.962;9.768;2023-01-26T11:54:01;3.38;;;2.50;;
38779;SDS011;29273;49.962;9.768;2023-01-26T11:56:08;3.40;;;2.40;;
38779;SDS011;29273;49.962;9.768;2023-01-26T11:58:54;3.25;;;2.55;;
38779;SDS011;29273;49.962;9.768;2023-01-26T12:01:30;3.92;;;2.72;;
38779;SDS011;29273;49.962;9.768;2023-01-26T12:04:01;3.33;;;2.53;;
38779;SDS011;29273;49.962;9.768;2023-01-26T12:06:36;4.55;;;2.83;;
38779;SDS011;29273;49.962;9.768;2023-01-26T12:14:33;2.70;;;2.10;;
38779;SDS011;29273;49.962;9.768;2023-01-26T12:17:57;2.63;;;1.92;;
38779;SDS011;29273;49.962;9.768;2023-01-26T12:20:18;2.95;;;2.45;;
38779;SDS011;29273;49.962;9.768;2023-01-26T12:22:57;3.03;;;2.28;;
38779;SDS011;29273;49.962;9.768;2023-01-26T12:25:29;3.60;;;2.60;;
38779;SDS011;29273;49.962;9.768;2023-01-26T12:30:49;3.60;;;2.17;;
38779;SDS011;29273;49.962;9.768;2023-01-26T12:33:15;2.88;;;2.30;;
38779;SDS011;29273;49.962;9.768;2023-01-26T12:38:17;2.47;;;2.10;;
38779;SDS011;29273;49.962;9.768;2023-01-26T12:46:38;2.90;;;2.40;;
38779;SDS011;29273;49.962;9.768;2023-01-26T12:49:11;3.45;;;2.60;;
38779;SDS011;29273;49.962;9.768;2023-01-26T12:51:47;2.63;;;2.10;;
38779;SDS011;29273;49.962;9.768;2023-01-26T12:57:19;2.95;;;2.38;;
38779;SDS011;29273;49.962;9.768;2023-01-26T12:59:49;3.20;;;2.70;;
38779;SDS011;29273;49.962;9.768;2023-01-26T13:04:44;2.70;;;2.28;;
38779;SDS011;29273;49.962;9.768;2023-01-26T13:10:22;3.50;;;2.55;;
38779;SDS011;29273;49.962;9.768;2023-01-26T13:12:52;3.10;;;2.53;;
38779;SDS011;29273;49.962;9.768;2023-01-26T13:15:24;2.50;;;2.22;;
38779;SDS011;29273;49.962;9.768;2023-01-26T13:17:53;3.03;;;2.25;;
38779;SDS011;29273;49.962;9.768;2023-01-26T13:20:27;2.75;;;2.40;;
38779;SDS011;29273;49.962;9.768;2023-01-26T13:28:36;2.67;;;2.05;;
38779;SDS011;29273;49.962;9.768;2023-01-26T13:31:03;3.55;;;2.28;;
38779;SDS011;29273;49.962;9.768;2023-01-26T13:33:30;2.10;;;1.90;;
38779;SDS011;29273;49.962;9.768;2023-01-26T13:35:56;2.60;;;2.13;;
38779;SDS011;29273;49.962;9.768;2023-01-26T13:38:28;2.78;;;2.20;;
38779;SDS011;29273;49.962;9.768;2023-01-26T13:40:58;2.90;;;2.53;;
38779;SDS011;29273;49.962;9.768;2023-01-26T13:43:30;2.33;;;2.13;;
38779;SDS011;29273;49.962;9.768;2023-01-26T13:46:07;3.13;;;2.72;;
38779;SDS011;29273;49.962;9.768;2023-01-26T13:51:17;3.25;;;2.75;;
38779;SDS011;29273;49.962;9.768;2023-01-26T13:53:56;3.78;;;2.90;;
38779;SDS011;29273;49.962;9.768;2023-01-26T14:01:31;3.67;;;2.95;;
38779;SDS011;29273;49.962;9.768;2023-01-26T14:04:04;3.42;;;2.90;;
38779;SDS011;29273;49.962;9.768;2023-01-26T14:06:30;3.45;;;2.90;;
38779;SDS011;29273;49.962;9.768;2023-01-26T14:08:57;3.90;;;2.95;;
38779;SDS011;29273;49.962;9.768;2023-01-26T14:11:24;4.13;;;2.97;;
38779;SDS011;29273;49.962;9.768;2023-01-26T14:13:52;5.63;;;3.40;;
38779;SDS011;29273;49.962;9.768;2023-01-26T14:16:27;3.63;;;2.70;;
38779;SDS011;29273;49.962;9.768;2023-01-26T14:19:02;3.20;;;2.67;;
38779;SDS011;29273;49.962;9.768;2023-01-26T14:21:49;2.95;;;2.42;;
38779;SDS011;29273;49.962;9.768;2023-01-26T14:24:17;2.67;;;2.40;;
38779;SDS011;29273;49.962;9.768;2023-01-26T14:29:21;2.47;;;2.28;;
38779;SDS011;29273;49.962;9.768;2023-01-26T14:31:50;3.17;;;1.92;;
38779;SDS011;29273;49.962;9.768;2023-01-26T14:34:18;2.40;;;2.15;;
38779;SDS011;29273;49.962;9.768;2023-01-26T14:36:46;2.22;;;2.03;;
38779;SDS011;29273;49.962;9.768;2023-01-26T14:39:16;2.55;;;2.35;;
38779;SDS011;29273;49.962;9.768;2023-01-26T14:41:43;2.85;;;2.28;;
38779;SDS011;29273;49.962;9.768;2023-01-26T14:44:10;2.85;;;2.38;;
38779;SDS011;29273;49.962;9.768;2023-01-26T14:49:50;2.92;;;1.98;;
38779;SDS011;29273;49.962;9.768;2023-01-26T14:52:23;3.08;;;2.40;;
38779;SDS011;29273;49.962;9.768;2023-01-26T14:55:04;2.80;;;2.50;;
38779;SDS011;29273;49.962;9.768;2023-01-26T14:57:31;2.97;;;2.47;;
38779;SDS011;29273;49.962;9.768;2023-01-26T14:59:58;2.42;;;2.15;;
38779;SDS011;29273;49.962;9.768;2023-01-26T15:02:32;2.80;;;2.38;;
38779;SDS011;29273;49.962;9.768;2023-01-26T15:05:03;2.97;;;2.40;;
38779;SDS011;29273;49.962;9.768;2023-01-26T15:07:37;3.00;;;2.28;;
38779;SDS011;29273;49.962;9.768;2023-01-26T15:12:55;3.17;;;2.17;;
38779;SDS011;29273;49.962;9.768;2023-01-26T15:15:40;3.25;;;2.67;;
38779;SDS011;29273;49.962;9.768;2023-01-26T15:26:07;2.75;;;2.45;;
38779;SDS011;29273;49.962;9.768;2023-01-26T15:28:34;3.70;;;2.58;;
38779;SDS011;29273;49.962;9.768;2023-01-26T15:31:01;3.42;;;2.72;;
38779;SDS011;29273;49.962;9.768;2023-01-26T15:36:46;3.33;;;3.00;;
38779;SDS011;29273;49.962;9.768;2023-01-26T15:39:14;3.05;;;2.65;;
38779;SDS011;29273;49.962;9.768;2023-01-26T15:41:42;3.72;;;2.70;;
38779;SDS011;29273;49.962;9.768;2023-01-26T15:44:16;3.70;;;3.00;;
38779;SDS011;29273;49.962;9.768;2023-01-26T15:46:43;4.30;;;3.20;;
38779;SDS011;29273;49.962;9.768;2023-01-26T15:49:10;4.38;;;3.10;;
38779;SDS011;29273;49.962;9.768;2023-01-26T15:51:36;4.30;;;3.17;;
38779;SDS011;29273;49.962;9.768;2023-01-26T15:54:02;3.72;;;3.10;;
38779;SDS011;29273;49.962;9.768;2023-01-26T15:56:28;4.22;;;3.25;;
38779;SDS011;29273;49.962;9.768;2023-01-26T15:58:55;4.53;;;3.30;;
38779;SDS011;29273;49.962;9.768;2023-01-26T16:01:20;4.22;;;3.25;;
38779;SDS011;29273;49.962;9.768;2023-01-26T16:03:50;4.57;;;3.45;;
38779;SDS011;29273;49.962;9.768;2023-01-26T16:06:23;4.80;;;3.20;;
38779;SDS011;29273;49.962;9.768;2023-01-26T16:08:50;4.47;;;3.30;;
38779;SDS011;29273;49.962;9.768;2023-01-26T16:11:16;4.32;;;3.15;;
38779;SDS011;29273;49.962;9.768;2023-01-26T16:13:42;3.63;;;3.17;;
38779;SDS011;29273;49.962;9.768;2023-01-26T16:16:10;4.97;;;3.78;;
38779;SDS011;29273;49.962;9.768;2023-01-26T16:18:37;4.78;;;3.70;;
38779;SDS011;29273;49.962;9.768;2023-01-26T16:21:09;4.78;;;3.83;;
38779;SDS011;29273;49.962;9.768;2023-01-26T16:23:40;4.85;;;3.20;;
38779;SDS011;29273;49.962;9.768;2023-01-26T16:26:07;4.43;;;3.40;;
38779;SDS011;29273;49.962;9.768;2023-01-26T16:28:35;4.57;;;3.28;;
38779;SDS011;29273;49.962;9.768;2023-01-26T16:31:27;5.45;;;3.65;;
38779;SDS011;29273;49.962;9.768;2023-01-26T16:33:55;4.75;;;3.63;;
38779;SDS011;29273;49.962;9.768;2023-01-26T16:36:21;5.35;;;3.80;;
38779;SDS011;29273;49.962;9.768;2023-01-26T16:38:46;5.75;;;3.40;;
38779;SDS011;29273;49.962;9.768;2023-01-26T16:41:13;4.15;;;3.35;;
38779;SDS011;29273;49.962;9.768;2023-01-26T16:43:41;4.63;;;3.30;;
38779;SDS011;29273;49.962;9.768;2023-01-26T16:46:07;5.53;;;3.70;;
38779;SDS011;29273;49.962;9.768;2023-01-26T16:48:33;4.22;;;3.33;;
38779;SDS011;29273;49.962;9.768;2023-01-26T16:50:59;4.32;;;3.22;;
38779;SDS011;29273;49.962;9.768;2023-01-26T16:53:35;4.35;;;3.35;;
38779;SDS011;29273;49.962;9.768;2023-01-26T16:56:01;4.82;;;3.20;;
38779;SDS011;29273;49.962;9.768;2023-01-26T16:58:26;4.20;;;3.28;;
38779;SDS011;29273;49.962;9.768;2023-01-26T17:00:52;4.88;;;3.20;;
38779;SDS011;29273;49.962;9.768;2023-01-26T17:03:19;4.18;;;3.35;;
38779;SDS011;29273;49.962;9.768;2023-01-26T17:05:45;3.95;;;2.85;;